Time;durP1;ratioP1;P1;durP2;ratioP2;P2;SDS_P1;SDS_P2;PMS_P1;PMS_P2;Temp;Humidity;BMP_temperature;BMP_pressure;BME280_temperature;BME280_humidity;BME280_pressure;Samples;Min_cycle;Max_cycle;Signal;HPM_P1;HPM_P2
2021/09/14 00:01:45;;;;;;;2.30;2.10;;;23.00;73.70;;;;;;5141241;27;20470;-42
2021/09/14 00:04:16;;;;;;;3.40;2.50;;;23.00;72.30;;;;;;5143699;27;20517;-41
2021/09/14 00:06:47;;;;;;;3.07;2.80;;;22.90;73.70;;;;;;5144657;27;20441;-42
2021/09/14 00:09:18;;;;;;;2.37;2.17;;;22.90;74.80;;;;;;5142846;27;20441;-42
2021/09/14 00:11:49;;;;;;;5.90;2.53;;;22.90;73.70;;;;;;5144721;27;20444;-42
2021/09/14 00:14:20;;;;;;;3.37;2.57;;;22.90;73.10;;;;;;5143340;27;20521;-43
2021/09/14 00:16:53;;;;;;;3.00;2.47;;;22.80;72.50;;;;;;5146577;27;20484;-43
2021/09/14 00:19:24;;;;;;;3.37;2.67;;;22.80;74.60;;;;;;5144654;27;20445;-43
2021/09/14 00:21:55;;;;;;;3.10;2.90;;;22.70;75.20;;;;;;5145492;27;20460;-42
2021/09/14 00:24:25;;;;;;;2.30;2.13;;;22.60;76.30;;;;;;5143850;27;20539;-42
2021/09/14 00:26:56;;;;;;;4.27;2.57;;;22.60;75.60;;;;;;5144133;27;20448;-42
2021/09/14 00:29:27;;;;;;;3.10;2.50;;;22.50;77.30;;;;;;5143262;27;20448;-44
2021/09/14 00:32:00;;;;;;;2.83;2.50;;;22.50;77.00;;;;;;5143993;27;20445;-43
2021/09/14 00:34:31;;;;;;;3.10;2.87;;;22.50;76.70;;;;;;5143580;27;20493;-43
2021/09/14 00:37:02;;;;;;;2.80;2.60;;;22.50;76.10;;;;;;5144296;27;20433;-41
2021/09/14 00:39:33;;;;;;;2.87;2.67;;;22.30;77.00;;;;;;5142106;27;20510;-42
2021/09/14 00:42:04;;;;;;;2.90;2.70;;;22.30;77.30;;;;;;5143892;27;20430;-41
2021/09/14 00:44:35;;;;;;;3.23;2.60;;;22.30;77.40;;;;;;5135391;27;20485;-41
2021/09/14 00:47:08;;;;;;;2.80;2.60;;;22.30;77.00;;;;;;5143636;27;20556;-42
2021/09/14 00:49:39;;;;;;;3.30;3.00;;;22.30;76.70;;;;;;5143845;27;20475;-42
2021/09/14 00:52:11;;;;;;;2.87;2.67;;;22.20;77.40;;;;;;5140094;27;20423;-42
2021/09/14 00:54:43;;;;;;;3.40;3.10;;;22.20;76.70;;;;;;5142740;27;20476;-41
2021/09/14 00:57:14;;;;;;;4.27;3.10;;;22.20;76.80;;;;;;5143252;27;20427;-42
2021/09/14 00:59:45;;;;;;;2.83;2.53;;;22.10;77.10;;;;;;5137317;27;20449;-42
2021/09/14 01:02:18;;;;;;;4.07;3.20;;;22.00;78.50;;;;;;5143458;27;20739;-43
2021/09/14 01:04:49;;;;;;;3.90;3.13;;;21.90;77.90;;;;;;5143818;27;20444;-42
2021/09/14 01:07:20;;;;;;;3.60;2.77;;;22.00;78.20;;;;;;5143461;27;20478;-43
2021/09/14 01:09:52;;;;;;;3.97;3.10;;;21.90;78.60;;;;;;5143928;27;20495;-43
2021/09/14 01:12:23;;;;;;;4.80;3.07;;;21.80;79.40;;;;;;5143125;27;20441;-41
2021/09/14 01:14:55;;;;;;;3.13;2.50;;;21.80;79.30;;;;;;5142377;27;20480;-41
2021/09/14 01:17:28;;;;;;;2.77;2.47;;;21.70;80.10;;;;;;5142722;27;20415;-42
2021/09/14 01:19:59;;;;;;;4.00;2.80;;;21.70;79.70;;;;;;5136087;27;20437;-44
2021/09/14 01:22:32;;;;;;;3.80;2.90;;;21.70;79.80;;;;;;5143125;27;20449;-41
2021/09/14 01:25:14;;;;;;;4.83;2.63;;;21.60;80.80;;;;;;5143305;27;20446;-41
2021/09/14 01:27:45;;;;;;;2.60;2.40;;;21.50;81.00;;;;;;5140350;27;20426;-42
2021/09/14 01:30:20;;;;;;;2.83;2.63;;;21.50;80.60;;;;;;5142329;27;20467;-41
2021/09/14 01:32:55;;;;;;;3.10;2.80;;;21.50;80.90;;;;;;5143398;27;20472;-42
2021/09/14 01:35:28;;;;;;;4.10;2.90;;;21.50;80.70;;;;;;5149297;27;20565;-41
2021/09/14 01:38:01;;;;;;;4.07;2.60;;;21.40;81.60;;;;;;5141516;27;20450;-41
2021/09/14 01:40:32;;;;;;;3.27;2.73;;;21.30;82.40;;;;;;5143367;27;20896;-42
2021/09/14 01:43:06;;;;;;;2.50;2.30;;;21.30;82.40;;;;;;5142473;28;20476;-41
2021/09/14 01:45:37;;;;;;;3.10;2.80;;;21.20;83.30;;;;;;5143143;28;20452;-42
2021/09/14 01:48:08;;;;;;;3.27;2.83;;;21.10;84.50;;;;;;5142489;27;20460;-41
2021/09/14 01:50:40;;;;;;;2.40;2.30;;;21.00;85.00;;;;;;5142736;27;20467;-41
2021/09/14 01:53:13;;;;;;;3.80;2.90;;;20.90;86.50;;;;;;5142554;27;20451;-41
2021/09/14 01:55:45;;;;;;;3.87;2.67;;;20.80;86.60;;;;;;5143967;27;20537;-41
2021/09/14 01:58:16;;;;;;;3.10;2.80;;;20.60;87.60;;;;;;5146868;27;20779;-42
2021/09/14 02:00:54;;;;;;;3.70;2.97;;;20.60;88.80;;;;;;5146837;27;20791;-41
2021/09/14 02:03:31;;;;;;;2.83;2.50;;;20.60;88.90;;;;;;5147180;27;20561;-41
2021/09/14 02:23:37;;;;;;;4.77;2.87;;;20.50;90.10;;;;;;5139730;27;20631;-32
2021/09/14 03:00:15;;;;;;;3.13;2.93;;;19.40;94.40;;;;;;5088282;28;20599;-34
2021/09/14 03:02:46;;;;;;;3.23;2.93;;;19.20;94.90;;;;;;5099736;28;20821;-34
2021/09/14 03:05:16;;;;;;;3.30;2.80;;;19.10;95.30;;;;;;5099863;28;20430;-35
2021/09/14 03:07:49;;;;;;;3.43;2.77;;;19.00;95.80;;;;;;5100242;28;20464;-34
2021/09/14 03:10:20;;;;;;;4.67;2.67;;;18.90;96.10;;;;;;5100123;28;20428;-34
2021/09/14 03:12:51;;;;;;;3.70;2.70;;;18.80;96.80;;;;;;5090800;28;20425;-33
2021/09/14 03:15:22;;;;;;;3.57;2.90;;;18.70;97.30;;;;;;5086467;28;20445;-34
2021/09/14 03:17:53;;;;;;;4.97;3.70;;;18.60;97.80;;;;;;5095819;28;20855;-34
2021/09/14 03:20:24;;;;;;;3.20;2.90;;;18.70;98.00;;;;;;5091562;28;20478;-34
2021/09/14 03:22:57;;;;;;;3.80;2.80;;;18.70;98.10;;;;;;5092230;28;20455;-34
2021/09/14 03:25:28;;;;;;;5.23;3.33;;;18.70;98.50;;;;;;5089194;28;20452;-34
2021/09/14 03:27:59;;;;;;;5.10;2.60;;;18.70;98.70;;;;;;5096290;28;20451;-34
2021/09/14 03:30:30;;;;;;;3.37;3.07;;;18.60;99.10;;;;;;5086008;28;20463;-34
2021/09/14 03:33:01;;;;;;;3.70;3.40;;;18.50;99.50;;;;;;5094602;28;20459;-34
2021/09/14 03:35:32;;;;;;;4.30;3.20;;;18.40;99.90;;;;;;5096063;28;20429;-34
2021/09/14 03:38:05;;;;;;;4.07;3.13;;;18.40;99.90;;;;;;5099605;28;20426;-34
2021/09/14 03:40:36;;;;;;;5.07;2.87;;;18.30;99.90;;;;;;5094531;28;20491;-35
2021/09/14 03:43:07;;;;;;;3.20;2.93;;;18.30;99.90;;;;;;5095081;28;20447;-34
2021/09/14 03:45:38;;;;;;;3.60;3.30;;;18.20;99.90;;;;;;5098577;28;20474;-34
2021/09/14 03:48:09;;;;;;;3.77;3.30;;;18.10;99.90;;;;;;5098354;28;20478;-34
2021/09/14 03:50:41;;;;;;;4.40;3.00;;;18.10;99.90;;;;;;5096861;28;20597;-34
2021/09/14 03:53:13;;;;;;;3.40;3.10;;;18.00;99.90;;;;;;5080287;28;20466;-34
2021/09/14 03:55:44;;;;;;;3.77;3.43;;;18.00;99.90;;;;;;5082115;28;20488;-34
2021/09/14 03:58:16;;;;;;;4.20;3.53;;;17.90;99.90;;;;;;5077773;28;20442;-34
2021/09/14 04:00:51;;;;;;;3.20;2.90;;;17.80;99.90;;;;;;5076295;28;20520;-34
2021/09/14 04:03:27;;;;;;;3.73;3.00;;;17.70;99.90;;;;;;5076997;28;20573;-34
2021/09/14 04:06:21;;;;;;;5.50;3.40;;;17.70;99.90;;;;;;5075919;28;20440;-34
2021/09/14 04:08:54;;;;;;;4.00;3.10;;;17.70;99.90;;;;;;5075053;28;20534;-34
2021/09/14 04:11:26;;;;;;;4.60;3.70;;;17.60;99.90;;;;;;5076720;28;20460;-34
2021/09/14 04:13:57;;;;;;;5.40;3.67;;;17.50;99.90;;;;;;5081878;28;20490;-34
2021/09/14 04:16:28;;;;;;;4.47;3.57;;;17.50;99.90;;;;;;5075402;28;20517;-34
2021/09/14 04:19:00;;;;;;;3.77;3.47;;;17.50;99.90;;;;;;5083222;28;20524;-34
2021/09/14 04:21:31;;;;;;;3.43;3.13;;;17.40;99.90;;;;;;5078899;28;20536;-34
2021/09/14 04:24:08;;;;;;;4.40;3.53;;;17.40;99.90;;;;;;5081990;28;20463;-34
2021/09/14 04:26:39;;;;;;;4.57;3.53;;;17.30;99.90;;;;;;5078324;28;20451;-34
2021/09/14 04:29:13;;;;;;;4.43;3.13;;;17.20;99.90;;;;;;5083519;28;20455;-34
2021/09/14 04:31:45;;;;;;;3.53;3.23;;;17.20;99.90;;;;;;5077514;28;20447;-34
2021/09/14 04:34:16;;;;;;;3.80;3.00;;;17.20;99.90;;;;;;5079056;28;20676;-34
2021/09/14 04:36:47;;;;;;;5.13;3.40;;;17.10;99.90;;;;;;5080907;28;20448;-33
2021/09/14 04:39:19;;;;;;;5.33;3.23;;;17.10;99.90;;;;;;5083317;28;20426;-34
2021/09/14 04:41:50;;;;;;;4.97;3.10;;;17.00;99.90;;;;;;5079046;28;20519;-34
2021/09/14 04:44:21;;;;;;;3.80;3.50;;;17.00;99.90;;;;;;5083882;28;20472;-34
2021/09/14 04:46:52;;;;;;;3.43;3.00;;;17.00;99.90;;;;;;5084300;28;20832;-34
2021/09/14 04:49:23;;;;;;;3.53;3.10;;;16.90;99.90;;;;;;5084733;28;20515;-34
2021/09/14 04:51:54;;;;;;;4.37;3.47;;;16.80;99.90;;;;;;5083716;28;20535;-34
2021/09/14 04:54:27;;;;;;;3.13;2.83;;;16.70;99.90;;;;;;5083477;28;20433;-33
2021/09/14 04:56:58;;;;;;;4.97;4.50;;;16.60;99.90;;;;;;5077504;28;20513;-33
2021/09/14 04:59:29;;;;;;;4.57;3.43;;;16.60;99.90;;;;;;5078692;28;20490;-33
2021/09/14 05:02:00;;;;;;;3.30;3.00;;;16.50;99.90;;;;;;5082839;28;20467;-33
2021/09/14 05:04:31;;;;;;;5.93;3.07;;;16.50;99.90;;;;;;5082789;28;20893;-33
2021/09/14 05:07:02;;;;;;;3.27;3.00;;;16.40;99.90;;;;;;5083280;28;20443;-33
2021/09/14 05:09:34;;;;;;;4.00;2.57;;;16.30;99.90;;;;;;5084054;28;20471;-34
2021/09/14 05:12:06;;;;;;;4.20;3.80;;;16.30;99.90;;;;;;5082539;28;20451;-34
2021/09/14 05:14:38;;;;;;;4.43;3.30;;;16.20;99.90;;;;;;5082471;28;20475;-34
2021/09/14 05:17:08;;;;;;;3.73;3.33;;;16.10;99.90;;;;;;5081750;28;20443;-34
2021/09/14 05:19:41;;;;;;;5.33;3.30;;;16.10;99.90;;;;;;5075112;28;20452;-34
2021/09/14 05:22:13;;;;;;;4.60;3.77;;;15.90;99.90;;;;;;5083018;28;20483;-33
2021/09/14 05:24:45;;;;;;;4.50;3.87;;;16.00;99.90;;;;;;5083417;28;20459;-33
2021/09/14 05:27:16;;;;;;;3.27;2.83;;;15.90;99.90;;;;;;5082379;28;20455;-33
2021/09/14 05:29:47;;;;;;;3.70;3.23;;;15.80;99.90;;;;;;5083418;28;20452;-33
2021/09/14 05:32:19;;;;;;;3.87;3.10;;;15.70;99.90;;;;;;5081752;28;20853;-33
2021/09/14 05:34:50;;;;;;;3.80;3.50;;;15.60;99.90;;;;;;5083165;28;20447;-33
2021/09/14 05:37:21;;;;;;;3.87;3.50;;;15.60;99.90;;;;;;5082987;28;20487;-33
2021/09/14 05:39:54;;;;;;;7.60;3.90;;;15.60;99.90;;;;;;5083704;28;20456;-33
2021/09/14 05:42:25;;;;;;;3.20;2.90;;;15.50;99.90;;;;;;5081098;28;20986;-33
2021/09/14 05:44:56;;;;;;;4.23;3.50;;;15.50;99.90;;;;;;5082829;28;20486;-33
2021/09/14 05:47:29;;;;;;;3.63;3.20;;;15.40;99.90;;;;;;5082616;28;20447;-33
2021/09/14 05:52:49;;;;;;;4.63;3.20;;;15.40;99.90;;;;;;5082816;28;20451;-33
2021/09/14 05:55:22;;;;;;;3.10;2.90;;;15.30;99.90;;;;;;5082520;28;20452;-33
2021/09/14 05:57:53;;;;;;;5.77;3.90;;;15.30;99.90;;;;;;5072103;28;20455;-33
2021/09/14 06:00:24;;;;;;;3.70;3.40;;;15.30;99.90;;;;;;5082679;28;20456;-33
2021/09/14 06:02:54;;;;;;;5.40;3.50;;;15.30;99.90;;;;;;5074983;28;20487;-33
2021/09/14 06:05:26;;;;;;;8.30;3.50;;;15.30;99.90;;;;;;5081475;28;20545;-33
2021/09/14 06:07:57;;;;;;;2.87;2.67;;;15.30;99.90;;;;;;5082640;28;20454;-33
2021/09/14 06:10:30;;;;;;;3.60;3.20;;;15.30;99.90;;;;;;5082906;28;20979;-33
2021/09/14 06:13:00;;;;;;;3.53;3.23;;;15.30;99.90;;;;;;5082032;28;20463;-32
2021/09/14 06:15:31;;;;;;;4.50;4.03;;;15.30;99.90;;;;;;5081429;28;20459;-33
2021/09/14 06:18:02;;;;;;;3.40;3.10;;;15.30;99.90;;;;;;5081780;28;20450;-33
2021/09/14 06:20:33;;;;;;;4.77;3.53;;;15.30;99.90;;;;;;5082999;28;20487;-33
2021/09/14 06:23:05;;;;;;;6.00;3.40;;;15.20;99.90;;;;;;5082790;28;20570;-32
2021/09/14 06:25:38;;;;;;;3.50;3.20;;;15.20;99.90;;;;;;5082079;28;20456;-33
2021/09/14 06:28:09;;;;;;;4.07;3.00;;;15.00;99.90;;;;;;5081019;28;20444;-33
2021/09/14 06:30:40;;;;;;;4.00;3.00;;;15.00;99.90;;;;;;5082810;28;20834;-32
2021/09/14 06:33:11;;;;;;;4.83;3.90;;;15.00;99.90;;;;;;5082483;28;20462;-32
2021/09/14 06:35:41;;;;;;;5.27;3.07;;;15.00;99.90;;;;;;5080174;28;20483;-33
2021/09/14 06:38:12;;;;;;;5.10;3.10;;;14.90;99.90;;;;;;5082095;28;20483;-32
2021/09/14 06:40:45;;;;;;;4.83;3.40;;;14.80;99.90;;;;;;5082394;28;20466;-32
2021/09/14 06:43:16;;;;;;;8.20;3.57;;;14.80;99.90;;;;;;5081479;28;20498;-32
2021/09/14 06:45:47;;;;;;;4.97;3.57;;;14.80;99.90;;;;;;5079500;28;20949;-32
2021/09/14 06:48:18;;;;;;;4.90;4.00;;;14.80;99.90;;;;;;5082549;28;20444;-32
2021/09/14 06:50:50;;;;;;;5.30;3.07;;;14.70;99.90;;;;;;5083120;28;20471;-32
2021/09/14 06:53:22;;;;;;;3.67;3.37;;;14.70;99.90;;;;;;5079047;28;20451;-32
2021/09/14 06:55:55;;;;;;;3.27;3.07;;;14.70;99.90;;;;;;5080286;28;20498;-33
2021/09/14 06:58:26;;;;;;;4.90;3.40;;;14.70;99.90;;;;;;5082137;28;20476;-33
2021/09/14 07:00:58;;;;;;;3.30;3.00;;;14.70;99.90;;;;;;5082425;28;20462;-32
2021/09/14 07:03:29;;;;;;;4.50;3.93;;;14.80;99.90;;;;;;5082269;28;20455;-33
2021/09/14 07:06:00;;;;;;;3.87;3.40;;;14.70;99.90;;;;;;5077469;28;20472;-33
2021/09/14 07:08:31;;;;;;;3.30;2.97;;;14.70;99.90;;;;;;5082366;28;20517;-33
2021/09/14 07:11:04;;;;;;;4.97;3.43;;;14.60;99.90;;;;;;5081904;28;20443;-33
2021/09/14 07:13:35;;;;;;;7.10;3.63;;;14.60;99.90;;;;;;5081679;28;20558;-32
2021/09/14 07:16:06;;;;;;;6.70;3.30;;;14.60;99.90;;;;;;5081038;28;20444;-32
2021/09/14 07:18:38;;;;;;;3.83;3.40;;;14.60;99.90;;;;;;5082413;28;20521;-34
2021/09/14 07:21:09;;;;;;;5.43;3.90;;;14.50;99.90;;;;;;5081724;28;20471;-33
2021/09/14 07:23:41;;;;;;;4.57;3.23;;;14.50;99.90;;;;;;5081782;28;20466;-32
2021/09/14 07:26:13;;;;;;;3.93;3.63;;;14.40;99.90;;;;;;5081927;28;20443;-32
2021/09/14 07:28:44;;;;;;;4.00;3.60;;;14.40;99.90;;;;;;5085466;28;20479;-32
2021/09/14 07:31:16;;;;;;;3.87;3.30;;;14.40;99.90;;;;;;5085911;28;20478;-32
2021/09/14 07:33:47;;;;;;;5.33;3.70;;;14.30;99.90;;;;;;5085423;28;20443;-32
2021/09/14 07:36:18;;;;;;;4.23;3.43;;;14.20;99.90;;;;;;5079256;28;20764;-33
2021/09/14 07:38:49;;;;;;;4.50;3.97;;;14.20;99.90;;;;;;5085422;28;20467;-33
2021/09/14 07:41:22;;;;;;;4.83;3.60;;;14.20;99.90;;;;;;5085774;28;20550;-32
2021/09/14 07:43:52;;;;;;;3.87;3.37;;;14.10;99.90;;;;;;5084980;28;21050;-32
2021/09/14 07:46:23;;;;;;;4.30;3.50;;;14.00;99.90;;;;;;5076669;28;20751;-33
2021/09/14 07:48:54;;;;;;;3.83;3.53;;;14.00;99.90;;;;;;5085393;28;20754;-32
2021/09/14 07:51:26;;;;;;;5.53;4.20;;;14.00;99.90;;;;;;5085032;28;20475;-32
2021/09/14 07:53:57;;;;;;;4.47;3.60;;;14.00;99.90;;;;;;5085839;28;20958;-32
2021/09/14 07:56:30;;;;;;;4.77;3.30;;;13.90;99.90;;;;;;5085338;28;20454;-32
2021/09/14 07:59:02;;;;;;;4.53;3.57;;;13.90;99.90;;;;;;5085066;28;20455;-32
2021/09/14 08:01:33;;;;;;;4.13;3.67;;;13.70;99.90;;;;;;5084993;28;20546;-32
2021/09/14 08:04:04;;;;;;;6.30;4.00;;;13.70;99.90;;;;;;5084200;28;20451;-32
2021/09/14 08:06:35;;;;;;;5.00;3.67;;;13.70;99.90;;;;;;5084373;28;20447;-32
2021/09/14 08:09:06;;;;;;;5.47;3.80;;;13.70;99.90;;;;;;5085485;28;21113;-32
2021/09/14 08:11:38;;;;;;;5.80;3.90;;;13.60;99.90;;;;;;5085146;28;20948;-32
2021/09/14 08:14:09;;;;;;;4.13;3.70;;;13.60;99.90;;;;;;5084319;28;20455;-32
2021/09/14 08:16:40;;;;;;;4.47;3.80;;;13.60;99.90;;;;;;5083932;28;20589;-32
2021/09/14 08:19:12;;;;;;;4.73;3.70;;;13.50;99.90;;;;;;5084917;28;20462;-31
2021/09/14 08:21:43;;;;;;;8.33;3.73;;;13.50;99.90;;;;;;5084932;28;20459;-32
2021/09/14 08:24:14;;;;;;;3.77;3.00;;;13.40;99.90;;;;;;5084459;28;20479;-32
2021/09/14 08:26:47;;;;;;;4.07;3.67;;;13.30;99.90;;;;;;5082045;28;20463;-32
2021/09/14 08:29:18;;;;;;;6.60;4.10;;;13.30;99.90;;;;;;5084771;28;20479;-32
2021/09/14 08:31:48;;;;;;;4.43;3.97;;;13.30;99.90;;;;;;5083944;28;20451;-32
2021/09/14 08:34:19;;;;;;;5.40;3.80;;;13.20;99.90;;;;;;5085115;28;20471;-32
2021/09/14 08:36:50;;;;;;;6.07;3.90;;;13.20;99.90;;;;;;5083589;28;20534;-33
2021/09/14 08:39:21;;;;;;;3.90;3.57;;;13.10;99.90;;;;;;5084402;28;20455;-32
2021/09/14 08:41:54;;;;;;;4.67;3.70;;;13.10;99.90;;;;;;5083855;28;20494;-33
2021/09/14 08:44:25;;;;;;;5.63;3.80;;;13.20;99.90;;;;;;5084054;28;20463;-32
2021/09/14 08:46:56;;;;;;;4.20;3.80;;;13.10;99.90;;;;;;5084063;28;20474;-33
2021/09/14 08:49:28;;;;;;;5.97;3.50;;;13.10;99.90;;;;;;5084750;28;20474;-32
2021/09/14 08:51:59;;;;;;;6.17;3.27;;;13.10;99.90;;;;;;5083813;28;20444;-32
2021/09/14 08:54:30;;;;;;;4.43;4.03;;;13.10;99.90;;;;;;5084441;28;20539;-32
2021/09/14 08:57:03;;;;;;;5.17;4.40;;;13.00;99.90;;;;;;5083186;28;20443;-32
2021/09/14 08:59:35;;;;;;;4.10;3.67;;;13.00;99.90;;;;;;5084395;28;20451;-32
2021/09/14 09:02:07;;;;;;;5.43;3.97;;;12.90;99.90;;;;;;5083786;28;20452;-33
2021/09/14 09:04:38;;;;;;;5.60;3.80;;;12.80;99.90;;;;;;5083333;28;20529;-32
2021/09/14 09:07:09;;;;;;;4.93;3.80;;;12.80;99.90;;;;;;5083956;28;20444;-32
2021/09/14 09:09:40;;;;;;;3.50;3.20;;;12.80;99.90;;;;;;5084171;28;20447;-32
2021/09/14 09:12:12;;;;;;;4.20;3.80;;;12.80;99.90;;;;;;5082760;28;20497;-32
2021/09/14 09:14:45;;;;;;;6.70;3.60;;;12.80;99.90;;;;;;5082706;28;20471;-33
2021/09/14 09:17:17;;;;;;;3.97;3.67;;;12.80;99.90;;;;;;5083806;28;20558;-32
2021/09/14 09:19:57;;;;;;;5.10;3.40;;;12.80;99.90;;;;;;5084164;28;20609;-33
2021/09/14 09:22:28;;;;;;;5.23;3.80;;;12.70;99.90;;;;;;5081964;28;20447;-32
2021/09/14 09:25:00;;;;;;;6.07;4.00;;;12.80;99.90;;;;;;5083499;28;20476;-32
2021/09/14 09:27:32;;;;;;;4.33;3.93;;;12.70;99.90;;;;;;5081551;28;20451;-32
2021/09/14 09:30:07;;;;;;;6.30;3.70;;;12.60;99.90;;;;;;5083826;28;20509;-33
2021/09/14 09:32:47;;;;;;;5.20;3.37;;;12.60;99.90;;;;;;5081818;28;20932;-33
2021/09/14 09:35:27;;;;;;;6.30;3.93;;;12.60;99.90;;;;;;5081361;28;20460;-32
2021/09/14 09:37:59;;;;;;;7.67;4.07;;;12.50;99.90;;;;;;5080526;28;20482;-33
2021/09/14 09:40:32;;;;;;;5.47;4.30;;;12.50;99.90;;;;;;5083100;28;20479;-33
2021/09/14 09:43:08;;;;;;;6.40;3.80;;;12.50;99.90;;;;;;5081672;28;20482;-33
2021/09/14 09:45:43;;;;;;;4.30;3.60;;;12.40;99.90;;;;;;5082512;28;20576;-33
2021/09/14 09:48:15;;;;;;;5.27;4.43;;;12.30;99.90;;;;;;5082884;28;20450;-33
2021/09/14 09:50:47;;;;;;;6.10;4.10;;;12.30;99.90;;;;;;5083027;28;20490;-32
2021/09/14 09:53:18;;;;;;;5.30;3.80;;;12.30;99.90;;;;;;5082803;28;20476;-32
2021/09/14 09:55:50;;;;;;;6.50;4.70;;;12.30;99.90;;;;;;5081433;28;20448;-32
2021/09/14 09:58:23;;;;;;;5.53;3.67;;;12.20;99.90;;;;;;5082330;28;20455;-32
2021/09/14 10:00:59;;;;;;;4.73;4.30;;;12.20;99.90;;;;;;5082904;28;20484;-32
2021/09/14 10:03:34;;;;;;;7.40;4.37;;;12.10;99.90;;;;;;5081969;28;20483;-33
2021/09/14 10:06:10;;;;;;;6.87;3.97;;;12.10;99.90;;;;;;5083363;28;20777;-32
2021/09/14 10:08:41;;;;;;;5.17;4.07;;;12.10;99.90;;;;;;5082910;28;20443;-32
2021/09/14 10:11:13;;;;;;;4.87;4.40;;;12.20;99.90;;;;;;5082899;28;20464;-33
2021/09/14 10:13:46;;;;;;;7.03;4.27;;;12.10;99.90;;;;;;5082615;28;20926;-33
2021/09/14 10:16:25;;;;;;;4.47;3.37;;;12.20;99.90;;;;;;5082356;28;21039;-33
2021/09/14 10:18:56;;;;;;;5.13;4.63;;;12.20;99.90;;;;;;5081377;28;20943;-32
2021/09/14 10:21:27;;;;;;;4.50;4.00;;;12.20;99.90;;;;;;5082340;28;20876;-32
2021/09/14 10:23:58;;;;;;;6.37;4.80;;;12.20;99.90;;;;;;5082838;28;20478;-32
2021/09/14 10:26:35;;;;;;;4.47;3.57;;;12.20;99.90;;;;;;5082779;28;20792;-32
2021/09/14 10:29:18;;;;;;;5.23;3.70;;;12.10;99.90;;;;;;5081561;28;20447;-32
2021/09/14 10:31:49;;;;;;;3.67;3.30;;;12.10;99.90;;;;;;5082075;28;20471;-32
2021/09/14 10:34:19;;;;;;;6.80;4.47;;;12.10;99.90;;;;;;5082953;28;20911;-32
2021/09/14 10:37:02;;;;;;;7.47;3.87;;;12.00;99.90;;;;;;5081335;28;20458;-32
2021/09/14 10:39:36;;;;;;;5.90;4.07;;;12.00;99.90;;;;;;5082526;28;20452;-32
2021/09/14 10:42:18;;;;;;;9.17;4.17;;;11.90;99.90;;;;;;5081716;28;20447;-32
2021/09/14 10:44:54;;;;;;;4.57;4.07;;;11.90;99.90;;;;;;5082177;28;20870;-32
2021/09/14 10:47:25;;;;;;;3.80;3.40;;;11.90;99.90;;;;;;5081254;28;20473;-32
2021/09/14 10:49:59;;;;;;;4.67;3.80;;;11.90;99.90;;;;;;5082021;28;20479;-33
2021/09/14 10:52:35;;;;;;;7.47;4.83;;;11.90;99.90;;;;;;5082419;28;20974;-32
2021/09/14 10:55:11;;;;;;;6.20;3.70;;;11.90;99.90;;;;;;5082226;28;20454;-32
2021/09/14 10:57:43;;;;;;;7.73;3.93;;;12.00;99.90;;;;;;5078508;28;20502;-32
2021/09/14 11:00:17;;;;;;;7.33;5.10;;;12.00;99.90;;;;;;5081894;28;20452;-32
2021/09/14 11:02:57;;;;;;;8.03;4.57;;;12.00;99.90;;;;;;5085148;28;20455;-32
2021/09/14 11:05:29;;;;;;;8.80;5.40;;;12.00;99.90;;;;;;5084483;28;20486;-32
2021/09/14 11:08:01;;;;;;;6.80;4.43;;;11.90;99.90;;;;;;5086531;28;20448;-33
2021/09/14 11:10:34;;;;;;;6.50;4.47;;;11.90;99.90;;;;;;5086072;28;20462;-32
2021/09/14 11:13:05;;;;;;;6.73;4.50;;;11.90;99.90;;;;;;5085489;28;20450;-32
2021/09/14 11:15:38;;;;;;;5.27;3.63;;;11.90;99.90;;;;;;5082364;28;20450;-32
2021/09/14 11:18:09;;;;;;;4.60;3.77;;;11.90;99.90;;;;;;5084921;28;20439;-32
2021/09/14 11:20:40;;;;;;;5.03;4.53;;;11.80;99.90;;;;;;5085988;28;20459;-32
2021/09/14 11:23:11;;;;;;;6.50;5.13;;;11.80;99.90;;;;;;5085899;28;20451;-32
2021/09/14 11:25:46;;;;;;;5.13;4.30;;;11.70;99.90;;;;;;5085745;28;20904;-32
2021/09/14 11:28:19;;;;;;;6.30;4.17;;;11.80;99.90;;;;;;5085941;28;20446;-32
2021/09/14 11:30:57;;;;;;;7.47;5.10;;;11.80;99.90;;;;;;5086108;28;20448;-32
2021/09/14 11:33:29;;;;;;;4.33;3.93;;;11.80;99.90;;;;;;5085152;28;20462;-32
2021/09/14 11:36:01;;;;;;;5.03;4.27;;;11.70;99.90;;;;;;5084088;28;21010;-33
2021/09/14 11:38:32;;;;;;;4.70;4.20;;;11.60;99.90;;;;;;5085553;28;20518;-32
2021/09/14 11:41:09;;;;;;;8.20;5.00;;;11.50;99.90;;;;;;5085393;28;20467;-32
2021/09/14 11:43:42;;;;;;;6.47;3.90;;;11.60;99.90;;;;;;5083998;28;20443;-32
2021/09/14 11:46:19;;;;;;;5.43;4.10;;;11.50;99.90;;;;;;5072857;28;20451;-32
2021/09/14 11:48:58;;;;;;;5.13;4.27;;;11.50;99.90;;;;;;5085116;28;20505;-32
2021/09/14 11:51:31;;;;;;;4.20;3.80;;;11.40;99.90;;;;;;5084819;28;20471;-32
2021/09/14 11:54:03;;;;;;;6.80;4.40;;;11.40;99.90;;;;;;5084413;28;20583;-32
2021/09/14 11:56:34;;;;;;;4.40;4.00;;;11.50;99.90;;;;;;5085234;28;20448;-32
2021/09/14 11:59:15;;;;;;;5.90;4.60;;;11.50;99.90;;;;;;5084990;28;20568;-33
2021/09/14 12:01:48;;;;;;;8.20;4.40;;;11.50;99.90;;;;;;5084673;28;20473;-32
2021/09/14 12:04:20;;;;;;;6.00;4.60;;;11.40;99.90;;;;;;5084932;28;20479;-32
2021/09/14 12:06:55;;;;;;;6.38;4.53;;;11.40;99.90;;;;;;5071436;28;20201;-32
2021/09/14 12:09:28;;;;;;;7.13;5.07;;;11.40;99.90;;;;;;5085424;28;20201;-32
2021/09/14 12:12:04;;;;;;;6.57;4.87;;;11.40;99.90;;;;;;5081831;28;20240;-32
2021/09/14 12:14:35;;;;;;;5.30;4.80;;;11.40;99.90;;;;;;5083983;28;20479;-32
2021/09/14 12:17:08;;;;;;;5.20;4.23;;;11.30;99.90;;;;;;5084400;28;20436;-32
2021/09/14 12:19:39;;;;;;;6.40;4.60;;;11.30;99.90;;;;;;5085162;28;20564;-33
2021/09/14 12:22:11;;;;;;;5.23;3.90;;;11.30;99.90;;;;;;5084598;28;20452;-33
2021/09/14 12:24:42;;;;;;;6.57;4.50;;;11.30;99.90;;;;;;5084992;28;20471;-33
2021/09/14 12:27:13;;;;;;;6.33;4.17;;;11.20;99.90;;;;;;5084326;28;20482;-32
2021/09/14 12:29:44;;;;;;;5.00;4.60;;;11.30;99.90;;;;;;5085239;28;20455;-32
2021/09/14 12:32:16;;;;;;;6.13;4.10;;;11.20;99.90;;;;;;5083049;28;20447;-32
2021/09/14 12:34:47;;;;;;;6.50;4.47;;;11.20;99.90;;;;;;5084220;28;20518;-32
2021/09/14 12:37:18;;;;;;;5.50;4.50;;;11.10;99.90;;;;;;5076682;28;20459;-32
2021/09/14 12:39:49;;;;;;;7.10;4.37;;;11.10;99.90;;;;;;5084193;28;20583;-33
2021/09/14 12:42:20;;;;;;;5.70;4.50;;;11.10;99.90;;;;;;5083448;28;20479;-32
2021/09/14 12:44:56;;;;;;;5.30;4.43;;;11.10;99.90;;;;;;5084752;28;20221;-32
2021/09/14 12:47:29;;;;;;;7.50;4.47;;;11.00;99.90;;;;;;5083935;28;20482;-32
2021/09/14 12:50:01;;;;;;;8.77;5.53;;;11.00;99.90;;;;;;5084882;28;20483;-32
2021/09/14 12:52:32;;;;;;;5.47;4.30;;;11.00;99.90;;;;;;5084255;28;20459;-34
2021/09/14 12:55:11;;;;;;;5.40;3.85;;;11.00;99.90;;;;;;5084377;28;20462;-33
2021/09/14 12:57:42;;;;;;;4.75;4.13;;;11.00;99.90;;;;;;5068293;28;20203;-33
2021/09/14 13:00:14;;;;;;;6.20;4.60;;;11.00;99.90;;;;;;5084677;28;20192;-33
2021/09/14 13:02:47;;;;;;;6.90;4.60;;;11.00;99.90;;;;;;5083921;28;20567;-33
2021/09/14 13:05:18;;;;;;;4.40;4.00;;;11.00;99.90;;;;;;5083912;28;20515;-32
2021/09/14 13:07:49;;;;;;;5.70;5.10;;;11.00;99.90;;;;;;5083900;28;20232;-33
2021/09/14 13:10:33;;;;;;;5.37;4.73;;;11.10;99.90;;;;;;5084013;28;20323;-32
2021/09/14 13:18:43;;;;;;;7.25;4.60;;;11.00;99.90;;;;;;5083584;28;20471;-32
2021/09/14 13:21:15;;;;;;;10.30;4.70;;;11.00;99.90;;;;;;5083794;28;20217;-33
2021/09/14 13:23:47;;;;;;;6.97;4.23;;;11.00;99.90;;;;;;5067260;28;20497;-32
2021/09/14 13:26:19;;;;;;;6.82;4.50;;;11.00;99.90;;;;;;5083689;28;20908;-32
2021/09/14 13:28:52;;;;;;;7.80;5.53;;;11.00;99.90;;;;;;5083237;28;20198;-32
2021/09/14 13:31:23;;;;;;;5.70;4.50;;;10.90;99.90;;;;;;5083688;28;20459;-32
2021/09/14 13:33:55;;;;;;;6.77;4.60;;;10.90;99.90;;;;;;5083202;28;20233;-32
2021/09/14 13:36:26;;;;;;;6.20;4.60;;;10.90;99.90;;;;;;5081674;28;20451;-32
2021/09/14 13:38:57;;;;;;;7.30;5.00;;;10.90;99.90;;;;;;5083959;28;20444;-33
2021/09/14 13:41:31;;;;;;;9.47;4.53;;;10.90;99.90;;;;;;5082778;28;20923;-33
2021/09/14 13:47:20;;;;;;;5.75;5.25;;;10.90;99.90;;;;;;5224188;27;20621;-33
2021/09/14 13:49:51;;;;;;;6.73;5.33;;;10.90;99.90;;;;;;5203363;27;20228;-32
2021/09/14 13:52:22;;;;;;;7.30;4.43;;;10.80;99.90;;;;;;5203721;27;20896;-32
2021/09/14 13:54:53;;;;;;;6.18;4.38;;;10.90;99.90;;;;;;5204158;27;20484;-32
2021/09/14 13:57:24;;;;;;;8.73;4.43;;;10.80;99.90;;;;;;5203273;27;20193;-32
2021/09/14 13:59:55;;;;;;;5.43;4.70;;;10.80;99.90;;;;;;5204179;27;20442;-32
2021/09/14 14:02:28;;;;;;;7.67;5.70;;;10.70;99.90;;;;;;5186306;27;20231;-32
2021/09/14 14:05:01;;;;;;;7.77;4.93;;;10.80;99.90;;;;;;5190781;27;20560;-32
2021/09/14 14:07:32;;;;;;;6.97;4.28;;;10.80;99.90;;;;;;5203805;27;20474;-32
2021/09/14 14:10:03;;;;;;;5.43;4.63;;;10.90;99.90;;;;;;5203389;27;20202;-32
2021/09/14 14:12:34;;;;;;;6.87;5.17;;;10.80;99.90;;;;;;5200815;27;20445;-32
2021/09/14 14:15:06;;;;;;;5.63;4.50;;;10.90;99.90;;;;;;5203982;27;20433;-32
2021/09/14 14:17:39;;;;;;;8.75;4.47;;;10.90;99.90;;;;;;5202303;27;20453;-32